createdAt,value
2019-01-14T00:00:35.668Z,7.50
2019-01-14T00:03:05.087Z,7.50
2019-01-14T00:05:34.455Z,7.60
2019-01-14T00:08:03.887Z,7.50
2019-01-14T00:10:33.155Z,7.50
2019-01-14T00:13:02.394Z,7.50
2019-01-14T00:15:31.642Z,7.50
2019-01-14T00:18:01.140Z,7.40
2019-01-14T00:20:30.439Z,7.50
2019-01-14T00:22:59.726Z,7.40
2019-01-14T00:25:28.995Z,7.50
2019-01-14T00:27:58.226Z,7.50
2019-01-14T00:30:27.476Z,7.50
2019-01-14T00:32:56.699Z,7.50
2019-01-14T00:35:25.955Z,7.60
2019-01-14T00:37:55.199Z,7.60
2019-01-14T00:40:24.442Z,7.50
2019-01-14T00:42:53.811Z,7.40
2019-01-14T00:45:23.112Z,7.40
2019-01-14T00:47:52.363Z,7.50
2019-01-14T00:50:21.672Z,7.50
2019-01-14T00:52:50.904Z,7.40
2019-01-14T00:55:20.160Z,7.50
2019-01-14T00:57:49.475Z,7.50
2019-01-14T01:00:21.239Z,7.40
2019-01-14T01:02:50.642Z,7.50
2019-01-14T01:05:19.902Z,7.30
2019-01-14T01:07:49.362Z,7.40
2019-01-14T01:10:19.151Z,7.50
2019-01-14T01:12:48.472Z,7.60
2019-01-14T01:15:17.949Z,7.50
2019-01-14T01:17:47.199Z,7.60
2019-01-14T01:20:18.563Z,7.60
2019-01-14T01:22:48.095Z,7.60
2019-01-14T01:25:17.547Z,7.60
2019-01-14T01:27:46.868Z,7.50
2019-01-14T01:30:16.931Z,7.50
2019-01-14T01:32:46.162Z,7.50
2019-01-14T01:35:16.194Z,7.30
2019-01-14T01:37:45.496Z,7.20
2019-01-14T01:40:17.530Z,7.10
2019-01-14T01:42:46.999Z,7.00
2019-01-14T01:45:16.890Z,7.00
2019-01-14T01:47:46.274Z,7.20
2019-01-14T01:50:16.836Z,7.10
2019-01-14T01:52:46.134Z,7.10
2019-01-14T01:55:15.516Z,7.10
2019-01-14T01:57:44.993Z,7.10
2019-01-14T02:00:18.472Z,7.10
2019-01-14T02:02:47.718Z,7.10
2019-01-14T02:05:17.090Z,7.20
2019-01-14T02:07:46.427Z,7.10
2019-01-14T02:10:20.308Z,7.10
2019-01-14T02:12:49.707Z,7.30
2019-01-14T02:15:19.677Z,7.20
2019-01-14T02:17:48.967Z,7.20
2019-01-14T02:20:19.153Z,7.30
2019-01-14T02:22:48.515Z,7.30
2019-01-14T02:25:18.002Z,7.30
2019-01-14T02:27:47.251Z,7.30
2019-01-14T02:30:18.561Z,7.30
2019-01-14T02:32:47.774Z,7.30
2019-01-14T02:35:17.178Z,7.20
2019-01-14T02:37:46.570Z,7.20
2019-01-14T02:40:17.701Z,7.10
2019-01-14T02:42:47.138Z,7.10
2019-01-14T02:45:16.767Z,7.10
2019-01-14T02:47:46.088Z,7.00
2019-01-14T02:50:15.658Z,7.00
2019-01-14T02:52:44.985Z,6.90
2019-01-14T02:55:14.361Z,7.00
2019-01-14T02:57:43.655Z,7.10
2019-01-14T03:00:22.275Z,7.20
2019-01-14T03:02:51.639Z,7.30
2019-01-14T03:05:20.931Z,7.40
2019-01-14T03:07:50.327Z,7.50
2019-01-14T03:10:19.619Z,7.50
2019-01-14T03:12:48.927Z,7.40
2019-01-14T03:15:18.483Z,7.30
2019-01-14T03:17:47.786Z,7.30
2019-01-14T03:20:17.644Z,7.40
2019-01-14T03:22:47.062Z,7.40
2019-01-14T03:25:16.732Z,7.20
2019-01-14T03:27:46.026Z,7.30
2019-01-14T03:30:17.323Z,7.20
2019-01-14T03:32:46.579Z,7.20
2019-01-14T03:35:16.011Z,7.20
2019-01-14T03:37:45.260Z,7.20
2019-01-14T03:40:15.843Z,7.30
2019-01-14T03:42:45.090Z,7.20
2019-01-14T03:45:14.459Z,7.20
2019-01-14T03:47:43.704Z,7.20
2019-01-14T03:50:18.679Z,7.20
2019-01-14T03:52:48.064Z,7.20
2019-01-14T03:55:17.364Z,7.30
2019-01-14T03:57:46.665Z,7.20
2019-01-14T04:00:18.876Z,7.20
2019-01-14T04:02:48.264Z,7.30
2019-01-14T04:05:17.618Z,7.30
2019-01-14T04:07:46.872Z,7.30
2019-01-14T04:10:19.183Z,7.30
2019-01-14T04:12:48.426Z,7.30
2019-01-14T04:15:18.901Z,7.30
2019-01-14T04:17:48.158Z,7.40
2019-01-14T04:20:18.543Z,7.50
2019-01-14T04:22:48.068Z,7.40
2019-01-14T04:25:17.400Z,7.30
2019-01-14T04:27:46.707Z,7.40
2019-01-14T04:30:18.751Z,7.50
2019-01-14T04:32:48.060Z,7.50
2019-01-14T04:35:17.717Z,7.60
2019-01-14T04:37:46.967Z,7.50
2019-01-14T04:40:16.846Z,7.50
2019-01-14T04:42:46.223Z,7.50
2019-01-14T04:45:16.402Z,7.60
2019-01-14T04:47:45.702Z,7.60
2019-01-14T04:50:20.404Z,7.60
2019-01-14T04:52:49.825Z,7.50
2019-01-14T04:55:19.333Z,7.40
2019-01-14T04:57:48.550Z,7.40
2019-01-14T05:00:20.221Z,7.40
2019-01-14T05:02:49.598Z,7.50
2019-01-14T05:05:19.171Z,7.60
2019-01-14T05:07:48.516Z,7.60
2019-01-14T05:10:20.079Z,7.70
2019-01-14T05:12:49.546Z,7.50
2019-01-14T05:15:18.818Z,7.40
2019-01-14T05:17:48.069Z,7.40
2019-01-14T05:20:22.446Z,7.30
2019-01-14T05:22:52.427Z,7.30
2019-01-14T05:25:21.819Z,7.30
2019-01-14T05:27:51.107Z,7.30
2019-01-14T05:30:20.989Z,7.30
2019-01-14T05:32:50.254Z,7.30
2019-01-14T05:35:19.579Z,7.40
2019-01-14T05:37:48.883Z,7.40
2019-01-14T05:40:25.530Z,7.50
2019-01-14T05:42:54.848Z,7.60
2019-01-14T05:45:24.145Z,7.60
2019-01-14T05:47:53.472Z,7.60
2019-01-14T05:50:22.747Z,7.50
2019-01-14T05:52:51.963Z,7.50
2019-01-14T05:55:21.274Z,7.40
2019-01-14T05:57:50.561Z,7.40
2019-01-14T06:00:22.522Z,7.40
2019-01-14T06:02:51.906Z,7.30
2019-01-14T06:05:21.145Z,7.40
2019-01-14T06:07:50.522Z,7.50
2019-01-14T06:10:19.829Z,7.40
2019-01-14T06:12:49.056Z,7.40
2019-01-14T06:15:18.447Z,7.50
2019-01-14T06:17:47.672Z,7.50
2019-01-14T06:20:20.226Z,7.40
2019-01-14T06:22:49.510Z,7.40
2019-01-14T06:25:19.035Z,7.30
2019-01-14T06:27:48.274Z,7.30
2019-01-14T06:30:22.960Z,7.20
2019-01-14T06:32:52.208Z,7.20
2019-01-14T06:35:21.524Z,7.30
2019-01-14T06:37:52.634Z,7.30
2019-01-14T06:40:22.164Z,7.30
2019-01-14T06:42:51.454Z,7.30
2019-01-14T06:45:20.839Z,7.40
2019-01-14T06:47:50.160Z,7.40
2019-01-14T06:50:20.375Z,7.50
2019-01-14T06:52:49.703Z,7.50
2019-01-14T06:55:19.191Z,7.50
2019-01-14T06:57:48.423Z,7.40
2019-01-14T07:00:20.743Z,7.30
2019-01-14T07:02:50.408Z,7.30
2019-01-14T07:05:19.834Z,7.40
2019-01-14T07:07:49.231Z,7.50
2019-01-14T07:10:21.491Z,7.60
2019-01-14T07:12:50.725Z,7.60
2019-01-14T07:15:20.041Z,7.40
2019-01-14T07:17:49.260Z,7.30
2019-01-14T07:20:19.152Z,7.20
2019-01-14T07:22:48.530Z,7.00
2019-01-14T07:25:17.940Z,7.00
2019-01-14T07:27:47.208Z,7.00
2019-01-14T07:30:21.300Z,7.00
2019-01-14T07:32:50.635Z,7.10
2019-01-14T07:35:19.953Z,7.10
2019-01-14T07:37:49.243Z,7.10
2019-01-14T07:40:19.544Z,7.20
2019-01-14T07:42:48.851Z,7.20
2019-01-14T07:45:19.118Z,7.10
2019-01-14T07:47:48.474Z,7.10
2019-01-14T07:50:18.535Z,7.00
2019-01-14T07:52:47.917Z,7.00
2019-01-14T07:55:17.166Z,7.00
2019-01-14T07:57:46.421Z,7.00
2019-01-14T08:00:18.754Z,6.90
2019-01-14T08:02:47.980Z,6.90
2019-01-14T08:05:17.222Z,7.00
2019-01-14T08:07:46.683Z,6.90
2019-01-14T08:10:16.070Z,6.90
2019-01-14T08:12:45.387Z,6.90
2019-01-14T08:15:19.205Z,6.80
2019-01-14T08:17:48.440Z,6.80
2019-01-14T08:20:17.760Z,6.80
2019-01-14T08:22:47.152Z,6.90
2019-01-14T08:25:16.470Z,6.90
2019-01-14T08:27:45.734Z,6.90
2019-01-14T08:30:17.572Z,7.00
2019-01-14T08:32:46.960Z,7.00
2019-01-14T08:35:16.742Z,6.90
2019-01-14T08:37:45.975Z,6.90
2019-01-14T08:40:17.371Z,6.90
2019-01-14T08:42:46.676Z,6.90
2019-01-14T08:45:16.070Z,6.70
2019-01-14T08:47:45.401Z,6.60
2019-01-14T08:50:16.871Z,6.50
2019-01-14T08:52:46.193Z,6.60
2019-01-14T08:55:15.496Z,6.50
2019-01-14T08:57:44.882Z,6.50
2019-01-14T09:00:16.870Z,6.50
2019-01-14T09:02:46.258Z,6.60
2019-01-14T09:05:15.808Z,6.60
2019-01-14T09:07:45.200Z,6.60
2019-01-14T09:10:17.594Z,6.50
2019-01-14T09:12:46.925Z,6.50
2019-01-14T09:15:18.079Z,6.70
2019-01-14T09:17:47.573Z,6.70
2019-01-14T09:20:18.855Z,6.70
2019-01-14T09:22:48.254Z,6.80
2019-01-14T09:25:17.551Z,6.90
2019-01-14T09:27:47.075Z,7.10
2019-01-14T09:30:18.535Z,7.20
2019-01-14T09:32:48.935Z,7.00
2019-01-14T09:35:18.331Z,7.10
2019-01-14T09:37:47.651Z,7.20
2019-01-14T09:40:19.505Z,7.30
2019-01-14T09:42:48.842Z,7.30
2019-01-14T09:45:18.282Z,7.20
2019-01-14T09:47:47.495Z,7.10
2019-01-14T09:50:16.984Z,7.00
2019-01-14T09:52:46.479Z,7.00
2019-01-14T09:55:17.523Z,7.10
2019-01-14T09:57:47.021Z,7.20
2019-01-14T10:00:16.327Z,7.00
2019-01-14T10:02:45.795Z,7.10
2019-01-14T10:05:16.993Z,7.20
2019-01-14T10:07:46.577Z,7.10
2019-01-14T10:10:19.675Z,6.80
2019-01-14T10:12:49.130Z,7.00
2019-01-14T10:15:20.899Z,7.10
2019-01-14T10:17:51.895Z,8.10
2019-01-14T10:20:21.236Z,9.80
2019-01-14T10:22:50.458Z,11.70
2019-01-14T10:25:19.752Z,12.70
2019-01-14T10:27:49.027Z,12.70
2019-01-14T10:30:19.391Z,12.70
2019-01-14T10:32:48.786Z,13.70
2019-01-14T10:35:18.010Z,15.20
2019-01-14T10:37:47.277Z,15.80
2019-01-14T10:40:17.186Z,16.70
2019-01-14T10:42:46.763Z,17.10
2019-01-14T10:45:20.584Z,17.40
2019-01-14T10:47:49.995Z,17.70
2019-01-14T10:50:19.981Z,18.00
2019-01-14T10:52:49.383Z,18.00
2019-01-14T10:55:18.803Z,16.90
2019-01-14T10:57:48.338Z,15.40
2019-01-14T11:00:20.114Z,14.40
2019-01-14T11:02:49.519Z,15.00
2019-01-14T11:05:27.397Z,16.40
2019-01-14T11:07:56.663Z,16.60
2019-01-14T11:10:25.981Z,15.40
2019-01-14T11:12:55.403Z,14.30
2019-01-14T11:15:24.717Z,13.20
2019-01-14T11:17:54.209Z,12.10
2019-01-14T11:20:30.222Z,11.20
2019-01-14T11:22:59.895Z,10.40
2019-01-14T11:25:29.247Z,9.50
2019-01-14T11:27:58.617Z,9.20
2019-01-14T11:30:29.634Z,8.80
2019-01-14T11:32:58.895Z,8.60
2019-01-14T11:35:28.651Z,8.10
2019-01-14T11:37:58.039Z,8.00
2019-01-14T11:40:35.091Z,8.00
2019-01-14T11:43:04.535Z,8.00
2019-01-14T11:45:33.903Z,8.10
2019-01-14T11:48:03.156Z,8.20
2019-01-14T11:50:32.382Z,8.20
2019-01-14T11:53:01.715Z,8.20
2019-01-14T11:55:31.038Z,8.50
2019-01-14T11:58:00.286Z,8.40
2019-01-14T12:00:36.266Z,8.50
2019-01-14T12:03:00.679Z,8.60
2019-01-14T12:05:30.010Z,8.40
2019-01-14T12:07:59.341Z,8.30
2019-01-14T12:10:28.752Z,8.30
2019-01-14T12:12:58.029Z,8.40
2019-01-14T12:15:29.082Z,8.70
2019-01-14T12:17:58.385Z,9.50
2019-01-14T12:20:27.726Z,9.50
2019-01-14T12:22:56.955Z,9.10
2019-01-14T12:25:26.188Z,8.60
2019-01-14T12:27:55.427Z,8.40
2019-01-14T12:30:27.768Z,8.20
2019-01-14T12:32:57.092Z,8.30
2019-01-14T12:35:26.407Z,8.60
2019-01-14T12:37:55.803Z,8.50
2019-01-14T12:40:25.369Z,8.30
2019-01-14T12:42:54.690Z,8.00
2019-01-14T12:45:24.078Z,7.90
2019-01-14T12:47:53.310Z,8.00
2019-01-14T12:50:24.415Z,8.00
2019-01-14T12:52:53.714Z,8.10
2019-01-14T12:55:23.056Z,8.20
2019-01-14T12:57:52.291Z,8.00
2019-01-14T13:00:27.175Z,8.10
2019-01-14T13:02:58.436Z,8.20
2019-01-14T13:05:28.415Z,8.10
2019-01-14T13:07:57.665Z,8.10
2019-01-14T13:10:26.967Z,8.10
2019-01-14T13:12:56.351Z,8.10
2019-01-14T13:15:26.539Z,8.40
2019-01-14T13:17:55.841Z,8.60
2019-01-14T13:20:25.127Z,8.60
2019-01-14T13:22:54.444Z,8.70
2019-01-14T13:25:23.808Z,8.80
2019-01-14T13:27:53.022Z,8.60
2019-01-14T13:30:27.354Z,8.40
2019-01-14T13:32:56.923Z,8.40
2019-01-14T13:35:26.225Z,8.20
2019-01-14T13:37:55.527Z,8.10
2019-01-14T13:40:24.979Z,7.80
2019-01-14T13:42:54.311Z,7.80
2019-01-14T13:45:23.804Z,7.60
2019-01-14T13:47:53.115Z,7.40
2019-01-14T13:50:24.183Z,7.40
2019-01-14T13:52:53.567Z,7.40
2019-01-14T13:55:22.951Z,7.40
2019-01-14T13:57:52.526Z,7.20
2019-01-14T14:00:25.787Z,7.10
2019-01-14T14:02:55.029Z,7.00
2019-01-14T14:05:24.280Z,6.70
2019-01-14T14:07:53.520Z,6.60
2019-01-14T14:10:25.866Z,6.50
2019-01-14T14:12:55.192Z,6.30
2019-01-14T14:15:25.646Z,6.20
2019-01-14T14:17:56.522Z,6.20
2019-01-14T14:20:25.979Z,6.10
2019-01-14T14:22:55.221Z,6.20
2019-01-14T14:25:24.511Z,6.20
2019-01-14T14:27:53.931Z,6.20
2019-01-14T14:30:27.156Z,6.00
2019-01-14T14:32:56.551Z,6.10
2019-01-14T14:35:25.797Z,6.20
2019-01-14T14:38:00.996Z,6.30
2019-01-14T14:40:26.127Z,6.40
2019-01-14T14:42:55.364Z,6.30
2019-01-14T14:45:24.837Z,6.20
2019-01-14T14:47:54.167Z,6.20
2019-01-14T14:50:23.432Z,6.10
2019-01-14T14:52:52.827Z,6.10
2019-01-14T14:55:22.149Z,6.00
2019-01-14T14:57:51.614Z,6.00
2019-01-14T15:00:22.328Z,6.20
2019-01-14T15:02:51.787Z,6.30
2019-01-14T15:05:22.860Z,6.20
2019-01-14T15:07:52.231Z,6.20
2019-01-14T15:10:21.859Z,6.30
2019-01-14T15:12:51.223Z,6.30
2019-01-14T15:15:22.212Z,6.30
2019-01-14T15:17:51.593Z,6.20
2019-01-14T15:20:22.295Z,6.10
2019-01-14T15:22:51.518Z,6.20
2019-01-14T15:25:20.900Z,6.40
2019-01-14T15:27:50.278Z,6.40
2019-01-14T15:30:24.905Z,6.30
2019-01-14T15:32:54.368Z,6.30
2019-01-14T15:35:23.843Z,6.20
2019-01-14T15:37:53.127Z,6.20
2019-01-14T15:40:22.595Z,6.40
2019-01-14T15:42:51.928Z,6.50
2019-01-14T15:45:24.600Z,6.40
2019-01-14T15:47:53.927Z,6.50
2019-01-14T15:50:23.268Z,6.40
2019-01-14T15:52:52.579Z,6.50
2019-01-14T15:55:23.790Z,6.40
2019-01-14T15:57:53.102Z,6.50
2019-01-14T16:00:22.459Z,6.70
2019-01-14T16:02:51.864Z,6.80
2019-01-14T16:05:21.166Z,6.80
2019-01-14T16:07:50.502Z,6.70
2019-01-14T16:10:23.639Z,6.70
2019-01-14T16:12:52.966Z,6.80
2019-01-14T16:15:22.240Z,6.60
2019-01-14T16:17:56.647Z,6.60
2019-01-14T16:20:28.936Z,6.50
2019-01-14T16:22:58.261Z,6.60
2019-01-14T16:25:27.537Z,6.50
2019-01-14T16:27:56.801Z,6.60
2019-01-14T16:30:26.147Z,6.60
2019-01-14T16:32:55.489Z,6.40
2019-01-14T16:35:24.719Z,6.40
2019-01-14T16:37:54.307Z,6.20
2019-01-14T16:40:23.783Z,6.20
2019-01-14T16:42:53.082Z,6.10
2019-01-14T16:45:23.328Z,6.10
2019-01-14T16:47:52.650Z,6.20
2019-01-14T16:50:22.051Z,6.20
2019-01-14T16:52:51.308Z,6.00
2019-01-14T16:55:22.186Z,6.10
2019-01-14T16:57:51.538Z,6.10
2019-01-14T17:00:20.851Z,6.10
2019-01-14T17:02:50.113Z,6.10
2019-01-14T17:05:19.514Z,6.00
2019-01-14T17:07:48.782Z,6.10
2019-01-14T17:10:24.974Z,6.20
2019-01-14T17:12:49.068Z,6.30
2019-01-14T17:15:18.287Z,6.30
2019-01-14T17:17:47.543Z,6.30
2019-01-14T17:20:18.558Z,6.10
2019-01-14T17:22:48.039Z,6.10
2019-01-14T17:25:17.405Z,6.00
2019-01-14T17:27:46.751Z,6.00
2019-01-14T17:30:17.005Z,6.00
2019-01-14T17:32:46.229Z,5.90
2019-01-14T17:35:15.702Z,6.10
2019-01-14T17:37:45.073Z,6.20
2019-01-14T17:40:19.223Z,6.30
2019-01-14T17:42:48.541Z,6.40
2019-01-14T17:45:17.890Z,6.30
2019-01-14T17:47:47.277Z,6.30
2019-01-14T17:50:18.262Z,6.00
2019-01-14T17:52:47.876Z,5.90
2019-01-14T17:55:17.195Z,5.90
2019-01-14T17:57:46.409Z,6.00
2019-01-14T18:00:33.520Z,5.80
2019-01-14T18:03:02.886Z,5.60
2019-01-14T18:05:32.208Z,5.60
2019-01-14T18:08:01.543Z,5.60
2019-01-14T18:10:30.883Z,5.80
2019-01-14T18:13:00.124Z,5.80
2019-01-14T18:15:29.510Z,5.90
2019-01-14T18:17:58.822Z,5.90
2019-01-14T18:20:28.067Z,5.80
2019-01-14T18:22:57.356Z,5.80
2019-01-14T18:25:26.710Z,5.60
2019-01-14T18:27:56.073Z,5.80
2019-01-14T18:30:25.467Z,5.80
2019-01-14T18:32:54.746Z,5.80
2019-01-14T18:35:24.036Z,5.90
2019-01-14T18:37:53.367Z,5.90
2019-01-14T18:40:22.616Z,6.10
2019-01-14T18:42:51.886Z,6.10
2019-01-14T18:45:21.348Z,6.10
2019-01-14T18:47:50.713Z,6.00
2019-01-14T18:50:20.950Z,5.90
2019-01-14T18:52:50.311Z,6.00
2019-01-14T18:55:19.732Z,5.90
2019-01-14T18:57:49.129Z,5.80
2019-01-14T19:00:20.095Z,5.70
2019-01-14T19:02:49.618Z,5.90
2019-01-14T19:05:20.191Z,5.70
2019-01-14T19:07:49.772Z,5.50
2019-01-14T19:10:19.073Z,5.50
2019-01-14T19:12:48.322Z,5.60
2019-01-14T19:15:18.932Z,5.70
2019-01-14T19:17:48.337Z,5.70
2019-01-14T19:20:22.707Z,5.80
2019-01-14T19:23:00.526Z,5.70
2019-01-14T19:25:29.779Z,5.60
2019-01-14T19:27:59.126Z,5.50
2019-01-14T19:30:28.542Z,5.40
2019-01-14T19:32:57.903Z,5.20
2019-01-14T19:35:27.210Z,5.20
2019-01-14T19:37:56.531Z,5.00
2019-01-14T19:40:26.043Z,5.00
2019-01-14T19:42:55.465Z,5.30
2019-01-14T19:45:24.716Z,5.20
2019-01-14T19:47:53.992Z,5.20
2019-01-14T19:50:23.536Z,5.10
2019-01-14T19:52:53.045Z,5.20
2019-01-14T19:55:22.302Z,5.30
2019-01-14T19:57:51.666Z,5.60
2019-01-14T20:00:23.388Z,5.60
2019-01-14T20:02:52.921Z,5.50
2019-01-14T20:05:22.407Z,5.50
2019-01-14T20:07:52.124Z,5.50
2019-01-14T20:10:21.673Z,5.70
2019-01-14T20:12:51.063Z,5.70
2019-01-14T20:15:21.586Z,5.60
2019-01-14T20:17:50.850Z,5.60
2019-01-14T20:20:20.133Z,5.40
2019-01-14T20:22:49.383Z,5.40
2019-01-14T20:25:18.726Z,5.50
2019-01-14T20:27:47.954Z,5.50
2019-01-14T20:30:21.545Z,5.50
2019-01-14T20:32:50.906Z,5.60
2019-01-14T20:35:20.166Z,5.80
2019-01-14T20:37:49.521Z,5.70
2019-01-14T20:40:18.886Z,5.80
2019-01-14T20:42:48.187Z,5.60
2019-01-14T20:45:18.021Z,5.70
2019-01-14T20:47:47.255Z,5.70
2019-01-14T20:50:18.344Z,5.70
2019-01-14T20:52:47.717Z,5.80
2019-01-14T20:55:17.232Z,5.90
2019-01-14T20:57:46.542Z,5.90
2019-01-14T21:00:18.994Z,5.90
2019-01-14T21:02:48.343Z,5.80
2019-01-14T21:05:18.467Z,5.70
2019-01-14T21:07:47.956Z,5.70
2019-01-14T21:10:17.538Z,5.60
2019-01-14T21:12:46.920Z,5.60
2019-01-14T21:15:16.331Z,5.60
2019-01-14T21:17:45.699Z,5.60
2019-01-14T21:20:17.800Z,5.60
2019-01-14T21:22:47.696Z,5.80
2019-01-14T21:25:17.023Z,5.80
2019-01-14T21:27:46.414Z,5.80
2019-01-14T21:30:18.302Z,5.60
2019-01-14T21:32:47.601Z,5.70
2019-01-14T21:35:17.100Z,5.80
2019-01-14T21:37:46.574Z,5.90
2019-01-14T21:40:15.876Z,5.80
2019-01-14T21:42:45.139Z,5.60
2019-01-14T21:45:15.087Z,5.70
2019-01-14T21:47:44.356Z,5.80
2019-01-14T21:50:16.671Z,5.80
2019-01-14T21:52:46.160Z,5.70
2019-01-14T21:55:17.540Z,5.60
2019-01-14T21:57:46.860Z,5.60
2019-01-14T22:00:18.690Z,5.50
2019-01-14T22:02:48.083Z,5.60
2019-01-14T22:05:17.315Z,5.70
2019-01-14T22:07:46.703Z,5.70
2019-01-14T22:10:21.475Z,5.60
2019-01-14T22:12:50.703Z,5.60
2019-01-14T22:15:20.096Z,5.70
2019-01-14T22:17:49.403Z,5.50
2019-01-14T22:20:21.187Z,5.40
2019-01-14T22:22:50.550Z,5.30
2019-01-14T22:25:19.799Z,5.20
2019-01-14T22:27:49.065Z,5.10
2019-01-14T22:30:21.024Z,4.90
2019-01-14T22:32:50.266Z,5.00
2019-01-14T22:35:19.584Z,5.00
2019-01-14T22:37:48.911Z,5.20
2019-01-14T22:40:18.528Z,5.10
2019-01-14T22:42:47.859Z,5.10
2019-01-14T22:45:17.124Z,5.10
2019-01-14T22:47:46.399Z,5.00
2019-01-14T22:50:17.999Z,5.10
2019-01-14T22:52:47.372Z,5.20
2019-01-14T22:55:16.646Z,5.20
2019-01-14T22:57:46.002Z,5.40
2019-01-14T23:00:25.879Z,5.30
2019-01-14T23:02:55.121Z,5.30
2019-01-14T23:05:24.471Z,5.20
2019-01-14T23:07:53.735Z,5.00
2019-01-14T23:10:22.966Z,5.00
2019-01-14T23:12:52.268Z,5.10
2019-01-14T23:15:21.489Z,5.10
2019-01-14T23:17:50.857Z,4.90
2019-01-14T23:20:20.095Z,4.90
2019-01-14T23:22:49.398Z,4.90
2019-01-14T23:25:18.652Z,5.00
2019-01-14T23:27:47.884Z,4.80
2019-01-14T23:30:17.291Z,4.60
2019-01-14T23:32:46.513Z,4.70
2019-01-14T23:35:15.758Z,4.90
2019-01-14T23:37:45.087Z,4.90
2019-01-14T23:40:14.332Z,4.90
2019-01-14T23:42:43.627Z,5.20
2019-01-14T23:45:12.914Z,5.30
2019-01-14T23:47:42.179Z,5.20
2019-01-14T23:50:11.636Z,5.00
2019-01-14T23:52:40.883Z,4.90
2019-01-14T23:55:10.384Z,4.90
2019-01-14T23:57:39.620Z,4.90
